Time;durP1;ratioP1;P1;durP2;ratioP2;P2;SDS_P1;SDS_P2;PMS_P1;PMS_P2;Temp;Humidity;BMP_temperature;BMP_pressure;BME280_temperature;BME280_humidity;BME280_pressure;Samples;Min_cycle;Max_cycle;Signal;HPM_P1;HPM_P2
2024/01/17 00:00:22;;;;;;;22.63;9.87;;;-0.50;91.50;;;;;;5034804;28;20022;-79
2024/01/17 00:02:48;;;;;;;16.97;8.77;;;-0.50;91.50;;;;;;5034704;28;20055;-79
2024/01/17 00:05:14;;;;;;;19.57;9.20;;;-0.50;91.60;;;;;;5034823;28;20029;-80
2024/01/17 00:07:40;;;;;;;17.87;8.53;;;-0.60;91.60;;;;;;5034443;28;20029;-79
2024/01/17 00:10:06;;;;;;;17.67;8.83;;;-0.60;91.60;;;;;;5034596;28;20412;-80
2024/01/17 00:12:32;;;;;;;17.93;9.10;;;-0.60;91.70;;;;;;5034690;28;20022;-80
2024/01/17 00:14:58;;;;;;;18.83;8.83;;;-0.60;91.70;;;;;;5034685;28;20017;-80
2024/01/17 00:17:24;;;;;;;19.33;8.97;;;-0.60;91.80;;;;;;5034491;28;20029;-80
2024/01/17 00:19:50;;;;;;;18.53;8.57;;;-0.70;91.80;;;;;;5034636;28;20037;-80
2024/01/17 00:22:16;;;;;;;19.53;10.60;;;-0.70;91.90;;;;;;5033838;28;20041;-79
2024/01/17 00:24:42;;;;;;;20.23;9.77;;;-0.70;92.10;;;;;;5033259;28;20044;-79
2024/01/17 00:27:08;;;;;;;15.33;8.90;;;-0.70;92.20;;;;;;5032627;28;20055;-80
2024/01/17 00:29:34;;;;;;;18.37;8.90;;;-0.70;92.10;;;;;;5033209;28;20024;-80
2024/01/17 00:32:00;;;;;;;20.27;9.17;;;-0.80;92.10;;;;;;5033808;28;20029;-79
2024/01/17 00:34:26;;;;;;;20.03;9.63;;;-0.80;92.20;;;;;;5034259;28;20025;-80
2024/01/17 00:36:51;;;;;;;21.53;8.73;;;-0.80;92.20;;;;;;5033620;28;20022;-80
2024/01/17 00:39:18;;;;;;;16.77;8.57;;;-0.80;92.30;;;;;;5034069;28;20470;-80
2024/01/17 00:41:45;;;;;;;17.47;8.63;;;-0.80;92.40;;;;;;5034398;28;20533;-80
2024/01/17 00:44:14;;;;;;;21.40;8.97;;;-0.80;92.40;;;;;;5032707;28;20078;-80
2024/01/17 00:46:40;;;;;;;15.53;7.67;;;-0.90;92.30;;;;;;5033948;28;20462;-80
2024/01/17 00:49:06;;;;;;;15.70;8.53;;;-0.90;92.30;;;;;;5033905;28;20033;-80
2024/01/17 00:51:32;;;;;;;15.43;7.80;;;-0.90;92.40;;;;;;5033600;28;20038;-80
2024/01/17 00:53:57;;;;;;;17.57;8.63;;;-0.90;92.20;;;;;;5033804;28;20036;-80
2024/01/17 00:56:23;;;;;;;13.23;6.60;;;-0.90;92.20;;;;;;5033726;28;20029;-80
2024/01/17 00:58:48;;;;;;;16.40;7.57;;;-0.90;92.20;;;;;;5033601;28;20048;-79
2024/01/17 01:01:14;;;;;;;14.77;7.23;;;-0.90;92.50;;;;;;5033667;28;20499;-79
2024/01/17 01:03:40;;;;;;;16.80;7.50;;;-1.00;92.50;;;;;;5033688;28;20496;-80
2024/01/17 01:06:05;;;;;;;16.33;7.87;;;-1.00;92.50;;;;;;5033161;28;20045;-80
2024/01/17 01:08:31;;;;;;;18.10;8.53;;;-1.00;92.50;;;;;;5034017;28;20100;-80
2024/01/17 01:10:57;;;;;;;15.03;6.33;;;-1.00;92.50;;;;;;5033533;28;20080;-80
2024/01/17 01:13:23;;;;;;;16.40;7.33;;;-1.00;92.50;;;;;;5033430;28;20032;-80
2024/01/17 01:15:48;;;;;;;19.53;8.17;;;-1.00;92.50;;;;;;5033407;28;20080;-80
2024/01/17 01:18:14;;;;;;;16.53;7.23;;;-1.00;92.60;;;;;;5033409;28;20477;-80
2024/01/17 01:20:40;;;;;;;15.53;7.40;;;-1.00;92.50;;;;;;5032927;28;20040;-80
2024/01/17 01:23:06;;;;;;;14.47;7.13;;;-1.00;92.40;;;;;;5033358;28;20450;-80
2024/01/17 01:25:31;;;;;;;11.40;5.93;;;-1.00;92.40;;;;;;5033398;28;20030;-80
2024/01/17 01:27:57;;;;;;;13.63;6.17;;;-1.00;92.40;;;;;;5033141;28;20112;-80
2024/01/17 01:30:23;;;;;;;14.20;5.97;;;-1.00;92.40;;;;;;5033281;28;20040;-80
2024/01/17 01:32:48;;;;;;;14.03;5.60;;;-1.00;92.30;;;;;;5030754;28;20022;-80
2024/01/17 01:35:14;;;;;;;11.43;5.87;;;-1.00;92.30;;;;;;5031485;28;20025;-80
2024/01/17 01:37:40;;;;;;;14.43;6.53;;;-1.10;92.30;;;;;;5033250;28;20037;-80
2024/01/17 01:40:07;;;;;;;14.63;6.83;;;-1.00;92.40;;;;;;5031921;28;20385;-80
2024/01/17 01:42:34;;;;;;;16.07;6.67;;;-1.10;92.40;;;;;;5031768;28;20030;-80
2024/01/17 01:45:00;;;;;;;12.63;6.40;;;-1.10;92.50;;;;;;5031710;28;20076;-80
2024/01/17 01:47:26;;;;;;;17.40;6.60;;;-1.10;92.50;;;;;;5032905;28;20029;-79
2024/01/17 01:49:52;;;;;;;13.03;6.67;;;-1.10;92.50;;;;;;5032897;28;20438;-79
2024/01/17 01:52:20;;;;;;;13.30;6.20;;;-1.10;92.50;;;;;;5033021;28;20067;-80
2024/01/17 01:54:46;;;;;;;13.13;6.07;;;-1.10;92.60;;;;;;5032875;28;20025;-80
2024/01/17 01:57:12;;;;;;;12.00;6.03;;;-1.10;92.60;;;;;;5032686;28;20025;-80
2024/01/17 01:59:38;;;;;;;12.27;6.50;;;-1.10;92.50;;;;;;5032923;28;20025;-80
2024/01/17 02:02:05;;;;;;;12.83;6.70;;;-1.20;92.60;;;;;;5033013;28;20028;-79
2024/01/17 02:04:34;;;;;;;11.93;5.67;;;-1.20;92.60;;;;;;5033531;28;20075;-79
2024/01/17 02:07:01;;;;;;;11.57;5.43;;;-1.20;92.60;;;;;;5033134;28;20025;-80
2024/01/17 02:09:30;;;;;;;13.77;6.00;;;-1.20;92.60;;;;;;5032794;28;20021;-80
2024/01/17 02:11:57;;;;;;;14.93;6.67;;;-1.10;92.60;;;;;;5032701;28;20025;-79
2024/01/17 02:14:24;;;;;;;13.47;7.07;;;-1.20;92.70;;;;;;5031489;28;20037;-80
2024/01/17 02:16:50;;;;;;;12.40;6.33;;;-1.20;92.80;;;;;;5032479;28;20025;-79
2024/01/17 02:19:17;;;;;;;18.07;7.63;;;-1.20;93.00;;;;;;5032622;28;20048;-79
2024/01/17 02:21:43;;;;;;;15.73;6.80;;;-1.20;93.00;;;;;;5032290;28;20034;-79
2024/01/17 02:24:28;;;;;;;14.60;6.80;;;-1.20;93.00;;;;;;5033085;28;20036;-80
2024/01/17 02:26:54;;;;;;;14.90;6.60;;;-1.30;93.00;;;;;;5032745;28;20033;-80
2024/01/17 02:29:21;;;;;;;11.30;6.30;;;-1.30;92.90;;;;;;5031376;28;20477;-79
2024/01/17 02:31:47;;;;;;;12.67;5.83;;;-1.30;92.90;;;;;;5031984;28;20069;-79
2024/01/17 02:34:13;;;;;;;15.83;6.37;;;-1.30;92.90;;;;;;5032628;28;20772;-80
2024/01/17 02:36:39;;;;;;;12.93;6.40;;;-1.30;93.00;;;;;;5032420;28;20355;-79
2024/01/17 02:39:06;;;;;;;11.43;5.87;;;-1.40;92.90;;;;;;5032321;28;20049;-79
2024/01/17 02:41:31;;;;;;;14.10;5.90;;;-1.40;93.00;;;;;;5032676;28;20022;-79
2024/01/17 02:43:57;;;;;;;13.37;6.60;;;-1.40;93.00;;;;;;5032193;28;20334;-79
2024/01/17 02:46:25;;;;;;;11.70;5.83;;;-1.40;93.00;;;;;;5036282;28;20520;-79
2024/01/17 02:48:52;;;;;;;13.87;6.83;;;-1.40;93.10;;;;;;5036429;28;20087;-79
2024/01/17 02:51:17;;;;;;;11.93;6.30;;;-1.40;93.10;;;;;;5036201;28;20040;-80
2024/01/17 02:53:43;;;;;;;12.67;6.53;;;-1.30;93.20;;;;;;5034949;28;20021;-80
2024/01/17 02:56:08;;;;;;;15.93;6.87;;;-1.40;93.20;;;;;;5036093;28;20084;-80
2024/01/17 02:58:34;;;;;;;11.57;6.13;;;-1.40;93.20;;;;;;5035989;28;20028;-80
2024/01/17 03:01:00;;;;;;;13.80;6.77;;;-1.30;93.20;;;;;;5034815;28;20026;-80
2024/01/17 03:03:25;;;;;;;15.07;6.00;;;-1.40;93.10;;;;;;5035940;28;20034;-80
2024/01/17 03:05:51;;;;;;;15.43;6.63;;;-1.40;93.10;;;;;;5036038;28;20515;-80
2024/01/17 03:08:17;;;;;;;14.47;6.73;;;-1.40;93.20;;;;;;5035397;28;20366;-80
2024/01/17 03:10:42;;;;;;;16.97;7.53;;;-1.40;93.20;;;;;;5035966;28;20040;-80
2024/01/17 03:13:12;;;;;;;15.10;7.40;;;-1.40;93.30;;;;;;5035934;28;20047;-80
2024/01/17 03:15:38;;;;;;;18.10;6.67;;;-1.40;93.30;;;;;;5035378;28;20044;-80
2024/01/17 03:18:06;;;;;;;19.27;7.23;;;-1.40;93.40;;;;;;5035687;28;20748;-80
2024/01/17 03:20:32;;;;;;;14.97;6.37;;;-1.40;93.40;;;;;;5035555;28;20298;-80
2024/01/17 03:22:58;;;;;;;16.03;7.23;;;-1.40;93.40;;;;;;5035497;28;20357;-80
2024/01/17 03:25:24;;;;;;;14.83;6.67;;;-1.40;93.40;;;;;;5034324;28;20026;-80
2024/01/17 03:27:50;;;;;;;17.47;6.70;;;-1.40;93.40;;;;;;5035161;28;20026;-81
2024/01/17 03:30:15;;;;;;;16.80;7.60;;;-1.40;93.50;;;;;;5035368;28;20034;-80
2024/01/17 03:32:41;;;;;;;14.67;6.63;;;-1.40;93.50;;;;;;5035161;28;20033;-80
2024/01/17 03:35:06;;;;;;;13.30;6.43;;;-1.40;93.40;;;;;;5035311;28;20033;-81
2024/01/17 03:37:33;;;;;;;13.83;5.60;;;-1.40;93.40;;;;;;5035223;28;20056;-80
2024/01/17 03:39:58;;;;;;;13.13;7.03;;;-1.40;93.40;;;;;;5035007;28;20033;-81
2024/01/17 03:42:24;;;;;;;13.97;6.10;;;-1.40;93.40;;;;;;5035123;28;20033;-80
2024/01/17 03:44:50;;;;;;;17.97;6.30;;;-1.40;93.40;;;;;;5035345;28;20057;-80
2024/01/17 03:47:15;;;;;;;12.23;6.07;;;-1.40;93.40;;;;;;5033610;28;20029;-80
2024/01/17 03:49:41;;;;;;;12.30;6.37;;;-1.40;93.40;;;;;;5032204;28;20021;-80
2024/01/17 03:52:10;;;;;;;10.23;5.00;;;-1.40;93.40;;;;;;5019970;28;20057;-80
2024/01/17 03:54:38;;;;;;;14.93;5.97;;;-1.30;93.40;;;;;;5015212;28;20030;-80
2024/01/17 03:57:04;;;;;;;13.47;6.27;;;-1.30;93.40;;;;;;5014303;28;20045;-80
2024/01/17 03:59:30;;;;;;;13.57;5.40;;;-1.30;93.40;;;;;;5014267;28;20030;-80
2024/01/17 04:01:56;;;;;;;13.50;6.27;;;-1.30;93.70;;;;;;5014730;28;20026;-80
2024/01/17 04:04:21;;;;;;;12.90;5.40;;;-1.30;93.50;;;;;;5015281;28;20022;-80
2024/01/17 04:06:47;;;;;;;12.73;5.70;;;-1.30;93.40;;;;;;5014820;28;20481;-80
2024/01/17 04:09:13;;;;;;;16.23;6.37;;;-1.20;93.50;;;;;;5013633;28;20022;-79
2024/01/17 04:11:38;;;;;;;19.50;6.30;;;-1.20;93.40;;;;;;5014732;28;20025;-80
2024/01/17 04:14:04;;;;;;;16.83;5.83;;;-1.20;93.40;;;;;;5013285;28;20018;-80
2024/01/17 04:16:30;;;;;;;12.63;5.77;;;-1.20;93.40;;;;;;5014943;28;20026;-80
2024/01/17 04:18:55;;;;;;;15.67;5.90;;;-1.20;93.40;;;;;;5014897;28;20034;-80
2024/01/17 04:21:21;;;;;;;10.77;5.53;;;-1.20;93.30;;;;;;5014389;28;20029;-80
2024/01/17 04:23:49;;;;;;;12.00;4.90;;;-1.20;93.40;;;;;;5014923;28;20117;-79
2024/01/17 04:26:23;;;;;;;11.33;5.20;;;-1.20;93.60;;;;;;5014581;28;20026;-80
2024/01/17 04:28:50;;;;;;;12.90;5.38;;;-1.20;93.30;;;;;;5013149;28;20030;-80
2024/01/17 04:31:31;;;;;;;15.70;5.67;;;-1.20;93.30;;;;;;5014705;28;20030;-80
2024/01/17 04:33:58;;;;;;;11.07;5.23;;;-1.20;93.60;;;;;;5014500;28;20540;-80
2024/01/17 04:36:27;;;;;;;11.03;4.40;;;-1.20;93.30;;;;;;5014193;28;20053;-80
2024/01/17 04:38:53;;;;;;;10.73;5.17;;;-1.20;93.40;;;;;;5013316;28;20680;-80
2024/01/17 04:41:20;;;;;;;13.67;5.33;;;-1.20;93.40;;;;;;5013130;28;20045;-80
2024/01/17 04:43:46;;;;;;;9.93;4.93;;;-1.20;93.40;;;;;;5013895;28;20020;-80
2024/01/17 04:46:14;;;;;;;13.67;5.03;;;-1.20;93.40;;;;;;5013042;28;20076;-80
2024/01/17 04:48:41;;;;;;;12.50;5.40;;;-1.20;93.40;;;;;;5012941;28;20010;-80
2024/01/17 04:51:09;;;;;;;11.63;4.67;;;-1.20;93.40;;;;;;5012742;28;20492;-80
2024/01/17 04:53:37;;;;;;;11.43;5.33;;;-1.20;93.40;;;;;;5013941;28;20018;-80
2024/01/17 04:56:05;;;;;;;11.47;5.43;;;-1.10;93.40;;;;;;5012643;28;20045;-80
2024/01/17 04:58:34;;;;;;;11.20;4.50;;;-1.10;93.40;;;;;;5014083;28;20030;-81
2024/01/17 05:01:00;;;;;;;9.90;4.87;;;-1.10;93.40;;;;;;5014119;28;20037;-80
2024/01/17 05:03:26;;;;;;;11.17;4.53;;;-1.10;93.40;;;;;;5012473;28;20483;-80
2024/01/17 05:05:51;;;;;;;11.40;5.03;;;-1.10;93.40;;;;;;5028884;28;20044;-80
2024/01/17 05:08:17;;;;;;;13.97;4.27;;;-1.10;93.40;;;;;;5012054;28;20025;-80
2024/01/17 05:10:44;;;;;;;16.07;5.33;;;-1.10;93.40;;;;;;5014810;28;20030;-80
2024/01/17 05:13:11;;;;;;;12.73;4.80;;;-1.00;93.40;;;;;;5018209;28;20026;-80
2024/01/17 05:15:37;;;;;;;9.67;4.60;;;-1.10;93.30;;;;;;5012411;28;20401;-80
2024/01/17 05:18:04;;;;;;;11.60;5.23;;;-1.00;93.40;;;;;;5013308;28;20029;-80
2024/01/17 05:20:30;;;;;;;9.97;4.40;;;-1.00;93.40;;;;;;5013377;28;20481;-80
2024/01/17 05:22:55;;;;;;;11.30;4.60;;;-1.00;93.40;;;;;;5016849;28;20108;-80
2024/01/17 05:25:21;;;;;;;11.10;4.83;;;-1.00;93.30;;;;;;5012332;28;20053;-80
2024/01/17 05:27:51;;;;;;;9.83;4.47;;;-1.00;93.40;;;;;;5013499;28;20057;-81
2024/01/17 05:30:23;;;;;;;11.07;5.13;;;-1.00;93.30;;;;;;5012373;28;20113;-80
2024/01/17 05:32:49;;;;;;;10.80;5.43;;;-1.00;93.30;;;;;;5013250;28;20056;-81
2024/01/17 05:35:15;;;;;;;11.43;5.50;;;-1.00;93.30;;;;;;5013884;28;20034;-81
2024/01/17 05:37:45;;;;;;;11.90;5.23;;;-0.90;93.30;;;;;;5013622;28;20038;-81
2024/01/17 05:40:11;;;;;;;10.43;5.00;;;-1.00;93.30;;;;;;5012711;28;20057;-81
2024/01/17 05:42:41;;;;;;;11.60;5.17;;;-0.90;93.30;;;;;;5013233;28;20034;-80
2024/01/17 05:45:07;;;;;;;14.23;5.17;;;-1.00;93.20;;;;;;5011776;28;20041;-81
2024/01/17 05:47:37;;;;;;;12.07;5.77;;;-1.00;93.20;;;;;;5012067;28;20112;-81
2024/01/17 05:50:04;;;;;;;12.60;5.87;;;-0.90;93.30;;;;;;5012905;28;20072;-81
2024/01/17 05:52:30;;;;;;;13.67;5.87;;;-0.90;93.20;;;;;;5013003;28;20033;-82
2024/01/17 05:54:56;;;;;;;12.50;5.30;;;-0.90;93.20;;;;;;5013290;28;20037;-84
2024/01/17 05:57:22;;;;;;;13.20;5.87;;;-0.90;93.20;;;;;;5013292;28;20061;-83
2024/01/17 05:59:48;;;;;;;13.50;5.77;;;-0.90;93.20;;;;;;5012980;28;20033;-83
2024/01/17 06:02:14;;;;;;;13.30;6.63;;;-1.00;93.20;;;;;;5013022;28;20061;-84
2024/01/17 06:04:40;;;;;;;12.03;5.73;;;-0.90;93.30;;;;;;5011824;28;20033;-84
2024/01/17 06:07:05;;;;;;;12.67;5.57;;;-0.80;93.30;;;;;;5013342;28;20025;-83
2024/01/17 06:09:31;;;;;;;11.90;5.90;;;-0.90;93.30;;;;;;5016196;28;20037;-83
2024/01/17 06:11:57;;;;;;;17.23;6.17;;;-0.90;93.30;;;;;;5020370;28;20049;-85
2024/01/17 06:14:22;;;;;;;14.60;5.87;;;-0.90;93.20;;;;;;5032560;28;20401;-84
2024/01/17 06:16:48;;;;;;;13.23;6.80;;;-1.00;93.20;;;;;;5031006;28;20061;-84
2024/01/17 06:19:16;;;;;;;12.13;6.10;;;-0.90;93.20;;;;;;5032623;28;20033;-84
2024/01/17 06:21:42;;;;;;;12.90;6.00;;;-1.00;93.20;;;;;;5026770;28;20053;-83
2024/01/17 06:24:08;;;;;;;13.23;6.63;;;-1.00;93.20;;;;;;5025208;28;20022;-82
2024/01/17 06:26:33;;;;;;;12.40;5.90;;;-1.00;93.20;;;;;;5024107;28;20033;-82
2024/01/17 06:28:59;;;;;;;15.50;6.60;;;-1.00;93.20;;;;;;5027640;28;20028;-82
2024/01/17 06:31:25;;;;;;;16.40;6.40;;;-1.00;93.20;;;;;;5024597;28;20034;-82
2024/01/17 06:33:54;;;;;;;12.70;5.20;;;-1.00;93.20;;;;;;5025242;28;20072;-82
2024/01/17 06:36:20;;;;;;;11.50;5.37;;;-1.00;93.30;;;;;;5048672;28;20037;-82
2024/01/17 06:38:46;;;;;;;15.70;6.10;;;-1.00;93.30;;;;;;5025880;28;20057;-82
2024/01/17 06:41:12;;;;;;;10.57;5.67;;;-1.00;93.30;;;;;;5025447;28;20052;-82
2024/01/17 06:43:39;;;;;;;9.93;4.83;;;-1.00;93.30;;;;;;5023715;28;20029;-82
2024/01/17 06:46:05;;;;;;;11.07;5.47;;;-1.00;93.30;;;;;;5026849;28;20021;-83
2024/01/17 06:48:32;;;;;;;11.67;5.70;;;-1.00;93.40;;;;;;5038513;28;20148;-83
2024/01/17 06:50:58;;;;;;;14.20;5.70;;;-1.00;93.40;;;;;;5035920;28;20025;-83
2024/01/17 06:53:23;;;;;;;13.40;5.80;;;-1.00;93.40;;;;;;5027567;28;20112;-83
2024/01/17 06:55:49;;;;;;;14.50;6.33;;;-1.00;93.40;;;;;;5024605;28;20018;-84
2024/01/17 06:58:15;;;;;;;13.20;6.17;;;-1.00;93.50;;;;;;5024018;28;20014;-84
2024/01/17 07:00:44;;;;;;;12.10;5.43;;;-0.90;93.50;;;;;;5026740;28;20028;-84
2024/01/17 07:03:10;;;;;;;11.17;6.00;;;-0.90;93.40;;;;;;5023173;28;20038;-84
2024/01/17 07:05:36;;;;;;;10.10;5.27;;;-0.90;93.40;;;;;;5025620;28;20426;-83
2024/01/17 07:08:02;;;;;;;13.27;5.80;;;-0.90;93.40;;;;;;5024167;28;20042;-84
2024/01/17 07:10:28;;;;;;;11.03;5.03;;;-0.90;93.40;;;;;;5028025;28;20381;-83
2024/01/17 07:12:54;;;;;;;13.60;5.87;;;-0.90;93.40;;;;;;5034936;28;20433;-84
2024/01/17 07:15:21;;;;;;;13.97;5.87;;;-0.90;93.40;;;;;;5016704;28;20117;-85
2024/01/17 07:17:46;;;;;;;13.40;6.30;;;-0.90;93.40;;;;;;5015857;28;20034;-84
2024/01/17 07:20:12;;;;;;;10.57;5.90;;;-0.90;93.40;;;;;;5018322;28;20038;-85
2024/01/17 07:22:42;;;;;;;11.53;5.73;;;-0.90;93.40;;;;;;5017491;28;20092;-85
2024/01/17 07:25:10;;;;;;;12.57;5.90;;;-0.90;93.40;;;;;;5014974;28;20029;-85
2024/01/17 07:27:38;;;;;;;13.50;6.63;;;-0.90;93.40;;;;;;5015417;28;20037;-85
2024/01/17 07:30:04;;;;;;;17.40;6.50;;;-0.90;93.40;;;;;;5015390;28;20030;-84
2024/01/17 07:32:31;;;;;;;17.80;6.27;;;-0.90;93.40;;;;;;5015808;28;20053;-85
2024/01/17 07:34:57;;;;;;;16.13;7.10;;;-0.90;93.40;;;;;;5015715;28;20022;-85
2024/01/17 07:37:22;;;;;;;18.43;7.23;;;-0.90;93.30;;;;;;5015313;28;20560;-85
2024/01/17 07:39:48;;;;;;;16.87;7.10;;;-0.90;93.40;;;;;;5015330;28;20457;-84
2024/01/17 07:42:14;;;;;;;11.83;6.87;;;-0.90;93.40;;;;;;5016245;28;20505;-85
2024/01/17 07:44:40;;;;;;;18.03;7.63;;;-0.90;93.30;;;;;;5015303;28;20289;-84
2024/01/17 07:47:06;;;;;;;13.90;6.17;;;-0.90;93.40;;;;;;5014261;28;20037;-84
2024/01/17 07:49:37;;;;;;;12.67;6.10;;;-1.00;93.30;;;;;;5015408;28;20034;-85
2024/01/17 07:52:04;;;;;;;13.47;6.20;;;-0.90;93.40;;;;;;5015270;28;20034;-85
2024/01/17 07:54:29;;;;;;;13.87;6.50;;;-0.90;93.40;;;;;;5015739;28;20405;-84
2024/01/17 07:56:55;;;;;;;14.07;5.90;;;-0.90;93.50;;;;;;5014135;28;20059;-85
2024/01/17 07:59:20;;;;;;;11.63;5.70;;;-0.90;93.50;;;;;;5014832;28;20055;-84
2024/01/17 08:01:49;;;;;;;12.73;6.60;;;-0.80;93.50;;;;;;5015122;28;20033;-84
2024/01/17 08:04:16;;;;;;;14.77;7.10;;;-0.90;93.50;;;;;;5013786;28;20041;-85
2024/01/17 08:06:43;;;;;;;17.27;7.00;;;-0.90;93.40;;;;;;5014219;28;20022;-84
2024/01/17 08:09:20;;;;;;;13.43;7.00;;;-0.90;93.40;;;;;;5014765;28;20474;-84
2024/01/17 08:11:58;;;;;;;16.37;6.40;;;-0.80;93.50;;;;;;5013921;28;20038;-84
2024/01/17 08:14:24;;;;;;;14.20;6.73;;;-0.80;93.50;;;;;;5013592;28;20022;-84
2024/01/17 08:16:52;;;;;;;11.80;5.87;;;-0.80;93.70;;;;;;5013741;28;20443;-84
2024/01/17 08:19:18;;;;;;;15.93;6.03;;;-0.70;93.50;;;;;;5015394;28;20029;-84
2024/01/17 08:21:46;;;;;;;12.93;5.90;;;-0.70;93.50;;;;;;5014783;28;20042;-84
2024/01/17 08:24:13;;;;;;;12.57;5.87;;;-0.70;93.50;;;;;;5013521;28;20030;-84
2024/01/17 08:26:39;;;;;;;11.73;6.10;;;-0.60;93.80;;;;;;5013544;28;20026;-85
2024/01/17 08:29:05;;;;;;;13.87;5.93;;;-0.60;93.60;;;;;;5014803;28;20473;-84
2024/01/17 08:31:31;;;;;;;14.20;5.50;;;-0.60;93.50;;;;;;5012993;28;20022;-85
2024/01/17 08:33:57;;;;;;;12.70;5.77;;;-0.50;93.60;;;;;;4997172;28;20026;-84
2024/01/17 08:36:33;;;;;;;12.53;5.23;;;-0.50;93.60;;;;;;5012932;28;20054;-84
2024/01/17 08:38:59;;;;;;;11.57;5.20;;;-0.50;93.60;;;;;;5013330;28;20018;-84
2024/01/17 08:41:24;;;;;;;12.93;5.13;;;-0.40;93.70;;;;;;5013196;28;20022;-84
2024/01/17 08:43:50;;;;;;;10.47;5.43;;;-0.40;93.70;;;;;;5012783;28;20478;-85
2024/01/17 08:46:16;;;;;;;12.07;6.27;;;-0.40;93.70;;;;;;5020855;28;20025;-83
2024/01/17 08:48:42;;;;;;;13.37;5.60;;;-0.30;93.80;;;;;;5017250;28;20033;-84
2024/01/17 08:51:08;;;;;;;14.77;5.83;;;-0.30;93.80;;;;;;5015592;28;20025;-84
2024/01/17 08:53:37;;;;;;;13.40;6.17;;;-0.30;93.80;;;;;;5014519;28;20474;-84
2024/01/17 08:56:05;;;;;;;11.23;5.77;;;-0.20;94.00;;;;;;5030214;28;20033;-85
2024/01/17 08:58:33;;;;;;;12.03;6.47;;;-0.10;93.90;;;;;;5014637;28;20022;-84
2024/01/17 09:01:02;;;;;;;16.03;6.70;;;-0.10;93.80;;;;;;5013769;28;20112;-84
2024/01/17 09:03:32;;;;;;;14.07;5.67;;;-0.10;93.80;;;;;;5013935;28;20026;-84
2024/01/17 09:05:57;;;;;;;15.53;6.20;;;0.00;93.70;;;;;;5013150;28;20493;-84
2024/01/17 09:08:23;;;;;;;13.43;6.27;;;0.00;93.70;;;;;;5014815;28;20139;-84
2024/01/17 09:10:49;;;;;;;15.00;6.57;;;0.10;93.70;;;;;;5029181;28;20026;-84
2024/01/17 09:13:15;;;;;;;17.07;6.60;;;0.10;93.60;;;;;;5014413;28;20026;-85
2024/01/17 09:15:40;;;;;;;13.03;5.50;;;0.20;93.50;;;;;;5013645;28;20072;-84
2024/01/17 09:18:07;;;;;;;16.00;7.00;;;0.20;93.50;;;;;;5013497;28;20444;-85
2024/01/17 09:20:33;;;;;;;14.03;6.60;;;0.20;93.50;;;;;;5013704;28;20504;-84
2024/01/17 09:23:00;;;;;;;12.67;6.20;;;0.20;93.50;;;;;;5013589;28;20453;-83
2024/01/17 09:25:25;;;;;;;11.57;6.17;;;0.30;93.60;;;;;;5013839;28;20281;-84
2024/01/17 09:27:51;;;;;;;15.17;7.20;;;0.30;93.60;;;;;;5029597;28;20082;-83
2024/01/17 09:30:16;;;;;;;11.27;5.57;;;0.40;93.60;;;;;;5029474;28;20030;-83
2024/01/17 09:32:44;;;;;;;15.13;6.67;;;0.40;93.60;;;;;;5029591;28;20036;-85
2024/01/17 09:35:10;;;;;;;12.47;5.90;;;0.50;93.40;;;;;;5028778;28;20022;-84
2024/01/17 09:37:36;;;;;;;18.57;7.27;;;0.50;93.30;;;;;;5029312;28;20084;-84
2024/01/17 09:40:05;;;;;;;13.90;6.70;;;0.60;93.30;;;;;;5029706;28;20124;-84
2024/01/17 09:42:34;;;;;;;13.47;6.47;;;0.60;93.30;;;;;;5029584;28;20014;-81
2024/01/17 09:45:04;;;;;;;12.77;6.57;;;0.60;93.30;;;;;;5014599;28;20014;-84
2024/01/17 09:47:33;;;;;;;12.43;7.17;;;0.70;93.40;;;;;;5013237;28;20140;-84
2024/01/17 09:50:00;;;;;;;15.30;6.97;;;0.70;93.40;;;;;;5029101;28;20030;-84
2024/01/17 09:52:25;;;;;;;11.70;6.03;;;0.70;93.40;;;;;;5028079;28;20022;-84
2024/01/17 09:54:52;;;;;;;15.43;6.90;;;0.70;93.40;;;;;;5027738;28;20489;-84
2024/01/17 09:57:23;;;;;;;14.47;6.30;;;0.80;93.40;;;;;;5013421;28;20097;-83
2024/01/17 09:59:57;;;;;;;14.93;7.23;;;0.80;93.40;;;;;;5012623;28;20040;-84
2024/01/17 10:02:27;;;;;;;14.93;6.63;;;0.80;93.30;;;;;;5028429;28;20014;-83
2024/01/17 10:04:53;;;;;;;13.87;6.50;;;0.90;93.20;;;;;;5013715;28;20049;-85
2024/01/17 10:07:19;;;;;;;12.73;7.00;;;0.90;93.20;;;;;;5013897;28;20026;-85
2024/01/17 10:09:48;;;;;;;13.53;7.17;;;1.00;93.20;;;;;;5012819;28;20367;-82
2024/01/17 10:12:17;;;;;;;15.13;7.83;;;1.00;93.20;;;;;;5013775;28;20446;-83
2024/01/17 10:14:42;;;;;;;12.87;6.23;;;1.10;93.30;;;;;;5013500;28;20030;-82
2024/01/17 10:17:09;;;;;;;14.03;6.60;;;1.10;93.30;;;;;;5015818;28;20072;-84
2024/01/17 10:19:34;;;;;;;12.83;7.17;;;1.10;93.30;;;;;;5013470;28;20038;-83
2024/01/17 10:22:04;;;;;;;13.80;6.67;;;1.20;93.20;;;;;;5013360;28;20149;-84
2024/01/17 10:24:35;;;;;;;13.33;6.83;;;1.30;93.20;;;;;;5027926;28;20032;-84
2024/01/17 10:27:04;;;;;;;13.60;7.20;;;1.40;93.10;;;;;;5028654;28;20164;-83
2024/01/17 10:29:31;;;;;;;13.37;7.97;;;1.40;92.80;;;;;;5028976;28;20025;-84
2024/01/17 10:31:58;;;;;;;13.83;7.00;;;1.30;92.80;;;;;;5027648;28;20370;-84
2024/01/17 10:34:27;;;;;;;15.73;6.80;;;1.40;92.80;;;;;;5028310;28;20117;-83
2024/01/17 10:36:53;;;;;;;11.53;6.07;;;1.40;92.70;;;;;;5028126;28;20025;-83
2024/01/17 10:39:23;;;;;;;12.73;6.73;;;1.50;92.70;;;;;;5012051;28;20176;-84
2024/01/17 10:41:54;;;;;;;13.37;6.90;;;1.50;92.70;;;;;;5028094;28;20029;-84
2024/01/17 10:44:21;;;;;;;14.83;7.07;;;1.60;92.60;;;;;;5013385;28;20022;-84
2024/01/17 10:46:50;;;;;;;17.53;7.13;;;1.60;92.40;;;;;;5028262;28;20104;-82
2024/01/17 10:49:17;;;;;;;14.13;7.33;;;1.60;92.20;;;;;;5029366;28;20026;-84
2024/01/17 10:52:07;;;;;;;13.90;6.67;;;1.60;92.20;;;;;;5013704;28;20470;-83
2024/01/17 10:55:05;;;;;;;13.87;7.37;;;1.70;92.10;;;;;;5013320;28;20152;-85
2024/01/17 10:57:34;;;;;;;15.47;7.50;;;1.70;91.70;;;;;;5008597;28;20064;-84
2024/01/17 11:00:03;;;;;;;13.07;7.70;;;1.70;91.60;;;;;;5029143;28;20022;-82
2024/01/17 11:02:31;;;;;;;17.43;6.87;;;1.70;91.50;;;;;;5012405;28;20056;-83
2024/01/17 11:05:06;;;;;;;15.47;7.20;;;1.70;91.60;;;;;;5013557;28;20044;-83
2024/01/17 11:07:33;;;;;;;11.40;5.90;;;1.70;91.60;;;;;;5017571;28;20025;-82
2024/01/17 11:10:02;;;;;;;15.23;7.33;;;1.70;91.60;;;;;;5032823;28;20536;-83
2024/01/17 11:12:33;;;;;;;18.70;8.97;;;1.70;91.50;;;;;;5033204;28;20018;-83
2024/01/17 11:15:05;;;;;;;15.87;7.77;;;1.70;91.40;;;;;;5017225;28;20058;-83
2024/01/17 11:17:35;;;;;;;15.27;7.23;;;1.70;91.30;;;;;;5017118;28;20054;-84
2024/01/17 11:20:08;;;;;;;16.30;8.37;;;1.70;91.30;;;;;;5015894;28;20385;-84
2024/01/17 11:22:38;;;;;;;13.27;6.63;;;1.70;91.30;;;;;;5014758;28;20046;-83
2024/01/17 11:25:38;;;;;;;16.43;7.50;;;1.70;91.30;;;;;;5017456;28;20500;-83
2024/01/17 11:28:20;;;;;;;16.03;7.40;;;1.70;91.30;;;;;;5033674;28;20021;-82
2024/01/17 11:30:54;;;;;;;14.43;8.10;;;1.70;91.40;;;;;;5015963;28;20046;-83
2024/01/17 11:33:20;;;;;;;8.93;4.82;;;1.80;91.50;;;;;;5032103;28;20037;-83
2024/01/17 11:35:48;;;;;;;14.33;7.00;;;1.80;91.50;;;;;;5016044;28;20545;-84
2024/01/17 11:38:23;;;;;;;15.20;7.53;;;1.80;91.50;;;;;;5032264;28;20022;-83
2024/01/17 11:40:54;;;;;;;13.90;6.43;;;1.80;91.60;;;;;;5016281;28;20029;-83
2024/01/17 11:43:20;;;;;;;15.30;7.03;;;1.80;91.60;;;;;;5031720;28;20032;-83
2024/01/17 11:45:50;;;;;;;14.53;7.40;;;1.80;91.70;;;;;;5031284;28;20486;-83
2024/01/17 11:48:22;;;;;;;14.17;7.47;;;1.90;91.80;;;;;;5031238;28;20118;-83
2024/01/17 11:51:15;;;;;;;14.20;7.17;;;1.90;91.80;;;;;;5016207;28;20112;-83
2024/01/17 11:53:43;;;;;;;14.60;6.83;;;1.90;91.90;;;;;;5015884;28;20093;-83
2024/01/17 11:56:15;;;;;;;14.00;7.00;;;2.00;91.90;;;;;;5014514;28;20025;-83
2024/01/17 11:58:42;;;;;;;14.10;6.77;;;2.00;91.90;;;;;;5014968;28;20121;-84
2024/01/17 12:01:22;;;;;;;13.63;6.73;;;2.10;91.80;;;;;;5030811;28;20030;-82
2024/01/17 12:03:49;;;;;;;13.60;6.20;;;2.10;91.70;;;;;;5031419;28;20408;-84
2024/01/17 12:06:16;;;;;;;13.67;7.63;;;2.20;91.50;;;;;;5015072;28;20014;-83
2024/01/17 12:08:42;;;;;;;17.70;7.00;;;2.20;91.40;;;;;;5014679;28;20025;-83
2024/01/17 12:11:09;;;;;;;14.00;6.90;;;2.20;91.20;;;;;;5030018;28;20029;-84
2024/01/17 12:13:38;;;;;;;13.90;6.80;;;2.20;91.10;;;;;;5030890;28;20104;-83
2024/01/17 12:16:05;;;;;;;14.57;7.43;;;2.30;91.00;;;;;;5014850;28;20026;-83
2024/01/17 12:18:35;;;;;;;14.23;6.87;;;2.30;91.00;;;;;;5029037;28;20402;-84
2024/01/17 12:21:02;;;;;;;13.67;6.40;;;2.20;90.90;;;;;;5030114;28;20191;-83
2024/01/17 12:23:30;;;;;;;16.60;6.37;;;2.30;90.90;;;;;;5015794;28;20034;-84
2024/01/17 12:25:57;;;;;;;12.90;6.93;;;2.30;90.80;;;;;;5014147;28;20030;-83
2024/01/17 12:28:24;;;;;;;15.03;6.47;;;2.30;90.80;;;;;;5016721;28;20022;-84
2024/01/17 12:30:58;;;;;;;11.43;6.27;;;2.30;90.80;;;;;;5017159;28;20033;-83
2024/01/17 12:33:24;;;;;;;13.38;6.38;;;2.30;90.80;;;;;;5031293;28;20026;-83
2024/01/17 12:35:53;;;;;;;14.83;7.10;;;2.40;90.80;;;;;;5014765;28;20030;-83
2024/01/17 12:38:19;;;;;;;15.13;7.23;;;2.50;90.90;;;;;;5030033;28;20528;-83
2024/01/17 12:40:46;;;;;;;16.43;6.47;;;2.40;90.80;;;;;;5016392;28;20470;-83